Crocus, North Dakota
Current Conditions -  °F | °C
As of 7:15 PM on Tuesday 21 Oct 2014 (Local Time) from K06D Reporting Station
Clear Clear  
Wind Chill: 59°   Ceiling: Unl
Heat Index: 59°   Visibility: 10mi
Dew Point: 41°   Wind: 13mph
Humidity: 51%   Direction: 160°SSE
Pressure: 29.73"   Gusts: NA
Location:  48.8584°N, 99.1311°W
Report Text: K06D 220015Z AUTO 16011KT 10SM CLR 15/05 A2973 RMK AO2
Loading
Personal Weather Stations






























Interactive Weather Map New forecast layout! Learn more

10-Day Weather Forecast

Advertisements
Track Severe Weather on mobile